AirNav   Air Wisconsin Up To $57,000 Bonus
 
 894 users online  

O03 Morgantown Airport
Morgantown, Pennsylvania, USA

GOING TO MORGANTOWN?


FAA INFORMATION EFFECTIVE 07 NOVEMBER 2019

Location

FAA Identifier: O03
Lat/Long: 40-09-25.3490N 075-52-13.7610W
40-09.422483N 075-52.229350W
40.1570414,-75.8704892
(estimated)
Elevation: 600 ft. / 183 m (estimated)
Variation: 11W (1985)
From city: 1 mile E of MORGANTOWN, PA
Time zone: UTC -5 (UTC -4 during Daylight Saving Time)
Zip code: 19520

Airport Operations

Airport use: Open to the public
Activation date: 03/1973
Control tower: no
ARTCC: NEW YORK CENTER
FSS: WILLIAMSPORT FLIGHT SERVICE STATION
NOTAMs facility: IPT (NOTAM-D service available)
Attendance: IREG
Wind indicator: lighted
Segmented circle: no
Lights: ACTVT LIRL RWY 10/28; WDI LGTS - CTAF.
Beacon: BCN INOP INDEF.

Airport Communications

CTAF: 122.9
WX AWOS-3 at MQS (11 nm S): 126.25 (610-384-6132)
WX ASOS at RDG (14 nm N): PHONE 610-372-9863
WX ASOS at PTW (15 nm E): 119.425 (610-495-0823)
WX AWOS-3T at OQN (17 nm SE): 121.4 ((610) 692-6190)
WX ASOS at LNS (20 nm W): 125.675 (717-569-8860)

Nearby radio navigation aids

VOR radial/distance  VOR name  Freq  Var
PTWr264/14.7POTTSTOWN VORTAC116.5009W
MXEr336/17.0MODENA VORTAC113.2009W
LRPr092/19.4LANCASTER VOR/DME117.3009W
ETXr208/26.8EAST TEXAS VOR/DME110.2009W
DQOr347/31.2DUPONT VORTAC114.0010W
FJCr219/39.1ALLENTOWN VORTAC117.5010W

 
NDB name  Hdg/Dist  Freq  Var  ID
AMBLER286/26.927512WING .. -. --.
BELLGROVE128/35.432810WBZJ -... --.. .---

Airport Services

Fuel available: 100LL
Parking: tiedowns
Airframe service: NONE
Powerplant service: NONE

Runway Information

Runway 10/28

Dimensions: 2500 x 100 ft. / 762 x 30 m
Surface: turf, in good condition
Runway edge lights: low intensity
Operational restrictions: MKD WITH YELLOW TIRES & LGTS.
RUNWAY 10  RUNWAY 28
Traffic pattern: leftleft
Displaced threshold: 435 ft.
DTHR MKD BY LGTS WITH YELLOW COLLARS; 3 EACH SIDE.
no
Obstructions: 15 ft. road, 53 ft. from runway, 3:1 slope to clear
APCH RATIO 17:1 TO DTHR.
none

Airport Ownership and Management from official FAA records

Ownership: Privately-owned
Owner: VERNON BEILER
2019 VALLEY ROAD
MORGANTOWN, PA 19543
Phone 610-286-9055
Manager: VERNON BEILER
2019 VALLEY ROAD
MORGANTOWN, PA 19543
Phone 610-286-9055

Airport Operational Statistics

Aircraft based on the field: 27
Single engine airplanes: 20
Gliders airplanes: 7
    
Aircraft operations: avg 28/day *
98% local general aviation
2% transient general aviation
* for 12-month period ending 15 May 2019

Additional Remarks

GLIDER ACT ON ARPT.
FOR FUEL CTC 610-286-9055.
FOR CD CTC RDG ATCT 610-478-9562; WHEN CLSD CTC MDT APCH 800-932-0712.

Instrument Procedures

There are no published instrument procedures at O03.

Some nearby airports with instrument procedures:

KMQS - Chester County G O Carlson Airport (11 nm S)
N47 - Pottstown Municipal Airport (11 nm NE)
KRDG - Reading Regional Airport/Carl A Spaatz Field (14 nm N)
KPTW - Heritage Field Airport (15 nm E)
KOQN - Brandywine Regional Airport (17 nm SE)
KLNS - Lancaster Airport (20 nm W)
 
Loc | Ops | Rwys | IFR | FBO | Links
Com | Nav | Svcs | Stats | Notes
Area around O03 (Morgantown Airport)
 
Road maps at: MapQuest Bing Google
 
Aerial photo
WARNING: Photo may not be current or correct
Aerial photo of O03 (Morgantown Airport)
Photo by Mike Dechnik
Photo taken 01-Sep-2008

Do you have a better or more recent aerial photo of Morgantown Airport that you would like to share? If so, please send us your photo.

 
Sectional chart

 
Airport distance calculator
Flying to Morgantown Airport? Find the distance to fly.

From to O03

Sunrise and sunset
Times for 19-Nov-2019
 Local
(UTC-5)
 Zulu
(UTC)
Morning civil twilight06:2511:25
Sunrise06:5511:55
Sunset16:4321:43
Evening civil twilight17:1322:13

Current date and time
Zulu (UTC)  19-Nov-2019 12:36:11
Local (UTC-5)  19-Nov-2019 07:36:11
 
METAR
KMQS 
11nm S 
191215Z AUTO 30008KT 1 1/2SM BR OVC004 03/02 A2979 RMK AO2
KRDG 
13nm N 
191223Z 26004KT 6SM BR OVC012 03/03 A2979 RMK AO2 T00330033
KPTW 
15nm E 
191154Z AUTO 31003KT 4SM BR CLR 01/01 A2979 RMK AO2 SLP088 T00060006 10033 20006 53017
KOQN 
17nm SE 
191215Z AUTO 00000KT 4SM BR 02/01 A2979 RMK AO2
KLNS 
20nm W 
191153Z 28005KT 6SM HZ OVC010 04/02 A2979 RMK AO2 SLP089 T00440017 10050 20028 53015
TAF
KRDG 
13nm N 
191135Z 1912/2012 28003KT P6SM SCT070 FM192100 29005KT P6SM BKN150 FM200400 00000KT P6SM BKN090
KLNS 
20nm W 
191159Z 1912/2012 28007KT 6SM HZ VCFG OVC010 FM191400 30005KT P6SM SCT045 BKN200
NOTAMs
Click for the latest NOTAMs
NOTAMs are issued by the DoD/FAA and will open in a separate window not controlled by AirNav.

 

 
 

Would you like to see your business listed on this page?

 If your business provides an interesting product or service to pilots, flight crews, aircraft, or users of the Morgantown Airport, you should consider listing it here.  To start the listing process, click on the button below
 
Add a business
 

Other Pages about Morgantown Airport

Update a link
 
Copyright © AirNav, LLC. All rights reserved. Privacy Policy  Contact